Latest Weather Observations for Hunters Hill

IDV60801

Issued at 7:31 pm EST Sunday 30 August 2015 (issued every 30 minutes, with the page automatically refreshed every 10 minutes)

About weather observations | Map of weather stations | Latest weather observations for VIC | Other Formats
Station Details ID: 082139 Name: HUNTERS HILL Lat: -36.21 Lon: 147.54 Height: 981.0 m
Data from the previous 72 hours. | See also: Recent months at Hunters Hill
Date/Time
EST
Temp
°C
App
Temp
°C
Dew
Point
Rel
Hum
%
Delta-T
°C
Wind Press
QNH
hPa
Press
MSL
hPa
Rain
since 9 am
mm
Dir
 
Spd
km/h
Gust
km/h
Spd
kts
Gust
kts
30/07:30pm 4.1 1.0 0.3 76 1.5 SSW 6 13 3 7 - - 0.0
30/07:00pm 4.6 1.9 0.4 74 1.7 ESE 4 11 2 6 - - 0.0
30/06:30pm 5.0 2.0 0.6 73 1.8 SSE 6 11 3 6 - - 0.0
30/06:00pm 5.0 2.0 0.9 75 1.7 SSW 6 11 3 6 - - 0.0
30/05:30pm 6.2 3.7 1.3 71 2.1 S 4 9 2 5 - - 0.0
30/05:00pm 7.6 5.0 1.0 63 2.8 SSW 4 7 2 4 - - 0.0
30/04:30pm 8.7 5.7 1.1 59 3.3 SSW 6 13 3 7 - - 0.0
30/04:00pm 9.1 6.1 0.6 55 3.7 SSE 6 13 3 7 - - 0.0
30/03:30pm 9.1 5.7 -0.8 50 4.1 SSE 7 13 4 7 - - 0.0
30/03:00pm 9.2 5.4 -0.9 49 4.2 SSE 9 24 5 13 - - 0.0
30/02:30pm 9.5 6.3 -0.4 50 4.2 S 6 17 3 9 - - 0.0
30/02:00pm 9.2 6.0 -0.4 51 4.0 S 6 15 3 8 - - 0.0
30/01:30pm 8.8 5.6 -0.5 52 3.9 SSE 6 13 3 7 - - 0.0
30/01:00pm 8.7 5.9 -0.3 53 3.8 SW 4 11 2 6 - - 0.0
30/12:30pm 8.6 5.9 0.3 56 3.5 WSW 4 9 2 5 - - 0.0
30/12:00pm 8.1 5.3 1.9 65 2.7 WSW 6 15 3 8 - - 0.0
30/11:30am 6.3 3.3 0.8 68 2.3 SW 6 11 3 6 - - 0.0
30/11:00am 6.7 3.7 1.0 67 2.4 SE 6 13 3 7 - - 0.0
30/10:30am 7.1 4.8 3.0 75 1.8 SE 4 9 2 5 - - 0.0
30/10:00am 5.1 2.0 1.6 78 1.5 S 7 19 4 10 - - 0.0
30/09:30am 4.8 1.7 1.5 79 1.4 SSE 7 17 4 9 - - 0.0
30/09:00am 4.5 1.6 1.7 82 1.2 SE 6 15 3 8 - - 0.0
30/08:30am 4.2 1.1 1.6 83 1.1 E 7 13 4 7 - - 0.0
30/08:00am 3.8 1.3 1.7 86 0.9 SE 4 9 2 5 - - 0.0
30/07:30am 3.3 0.4 1.3 87 0.8 SSE 6 17 3 9 - - 0.0
30/07:00am 2.9 0.4 1.4 90 0.6 SSE 4 9 2 5 - - 0.0
30/06:30am 2.8 0.3 1.3 90 0.6 SSE 4 9 2 5 - - 0.0
30/06:00am 2.5 0.3 1.2 91 0.5 SSE 2 9 1 5 - - 0.0
30/05:30am 2.3 -0.3 1.0 91 0.5 SSE 4 7 2 4 - - 0.0
30/05:00am 2.2 -0.4 1.2 93 0.4 SSE 4 6 2 3 - - 0.0
30/04:30am 2.6 0.1 1.4 92 0.5 SSE 4 6 2 3 - - 0.0
30/04:00am 3.0 0.1 1.4 89 0.7 SSE 6 11 3 6 - - 0.0
30/03:30am 3.0 0.1 1.4 89 0.7 SSE 6 11 3 6 - - 0.0
30/03:00am 3.1 0.0 1.3 88 0.7 SE 7 17 4 9 - - 0.0
30/02:30am 3.0 0.1 1.2 88 0.7 SSE 6 13 3 7 - - 0.0
30/02:00am 3.1 0.2 1.5 89 0.7 S 6 15 3 8 - - 0.0
30/01:30am 2.9 0.0 1.7 92 0.5 SSE 6 11 3 6 - - 0.0
30/01:00am 3.0 0.2 1.8 92 0.5 SSE 6 11 3 6 - - 0.0
30/12:30am 2.9 0.0 1.7 92 0.5 SSE 6 13 3 7 - - 0.0
30/12:00am 3.0 0.5 1.8 92 0.5 WSW 4 11 2 6 - - 0.0
 
Date/Time
EST
Temp
°C
App
Temp
°C
Dew
Point
Rel
Hum
%
Delta-T
°C
Wind Press
QNH
hPa
Press
MSL
hPa
Rain
since 9 am
mm
Dir
 
Spd
km/h
Gust
km/h
Spd
kts
Gust
kts
29/11:30pm 2.9 0.5 2.3 96 0.3 WSW 4 7 2 4 - - 0.0
29/11:00pm 2.6 0.5 2.0 96 0.3 WSW 2 4 1 2 - - 0.0
29/10:30pm 2.7 0.2 1.8 94 0.4 WSW 4 6 2 3 - - 0.0
29/10:00pm 2.9 0.4 1.7 92 0.5 WSW 4 7 2 4 - - 0.0
29/09:30pm 3.1 0.3 1.9 92 0.5 WSW 6 9 3 5 - - 0.0
29/09:00pm 3.3 0.3 2.0 91 0.5 WSW 7 15 4 8 - - 0.0
29/08:30pm 3.0 0.0 2.0 93 0.4 WSW 7 9 4 5 - - 0.0
29/08:00pm 3.1 0.0 1.6 90 0.6 WSW 7 11 4 6 - - 0.0
29/07:30pm 3.5 0.0 1.4 86 0.9 WSW 9 19 5 10 - - 0.0
29/07:00pm 3.5 -0.4 1.4 86 0.9 WSW 11 15 6 8 - - 0.0
29/06:30pm 3.8 -0.1 1.0 82 1.2 W 11 17 6 9 - - 0.0
29/06:00pm 4.2 0.3 0.9 79 1.4 WSW 11 19 6 10 - - 0.0
29/05:30pm 5.0 1.1 1.3 77 1.6 W 11 19 6 10 - - 0.0
29/05:00pm 5.1 1.7 1.8 79 1.4 WSW 9 22 5 12 - - 0.0
29/04:30pm 5.4 2.0 1.7 77 1.6 W 9 20 5 11 - - 0.0
29/04:00pm 5.4 1.9 1.1 74 1.8 W 9 20 5 11 - - 0.0
29/03:30pm 6.8 3.8 1.9 71 2.1 W 7 13 4 7 - - 0.0
29/03:00pm 6.0 2.4 0.8 69 2.2 WSW 9 19 5 10 - - 0.0
29/02:30pm 6.4 3.2 0.9 68 2.3 WSW 7 17 4 9 - - 0.0
29/02:00pm 6.8 3.2 0.7 65 2.6 WSW 9 19 5 10 - - 0.0
29/01:30pm 7.5 4.5 1.8 67 2.5 WSW 7 15 4 8 - - 0.0
29/01:00pm 7.7 4.7 2.0 67 2.5 W 7 13 4 7 - - 0.0
29/12:30pm 6.3 3.2 1.2 70 2.2 WSW 7 15 4 8 - - 0.0
29/12:00pm 7.1 4.2 1.4 67 2.4 WSW 6 9 3 5 - - 0.0
29/11:30am 6.9 3.9 2.0 71 2.1 WSW 7 13 4 7 - - 0.0
29/11:00am 5.7 2.4 0.1 67 2.3 WSW 7 13 4 7 - - 0.0
29/10:30am 5.1 1.8 -0.1 69 2.1 WSW 7 11 4 6 - - 0.0
29/10:00am 5.5 2.5 0.7 71 2.0 WSW 6 9 3 5 - - 0.0
29/09:30am 4.7 2.0 -2.4 60 2.7 WSW 2 4 1 2 - - 0.0
29/09:00am 4.0 1.6 -0.6 72 1.8 WSW 2 4 1 2 - - 0.0
29/08:30am 3.3 1.2 -0.5 76 1.5 CALM 0 4 0 2 - - 0.0
29/08:00am 1.8 -0.3 1.8 100 0.0 WSW 2 6 1 3 - - 0.0
29/07:30am 1.6 -0.5 1.6 100 0.0 WSW 2 6 1 3 - - 0.0
29/07:00am 1.7 -1.2 1.7 100 0.0 WSW 6 9 3 5 - - 0.0
29/06:30am 2.1 -0.3 2.1 100 0.0 WSW 4 7 2 4 - - 0.0
29/06:00am 2.1 -0.3 2.1 100 0.0 WSW 4 11 2 6 - - 0.0
29/05:30am 2.6 -0.1 2.6 100 0.0 WSW 6 9 3 5 - - 0.0
29/05:00am 2.2 -0.8 2.2 100 0.0 WSW 7 15 4 8 - - 0.0
29/04:30am 2.4 -0.5 2.4 100 0.0 WSW 7 13 4 7 - - 0.0
29/04:00am 2.7 0.0 2.7 100 0.0 WSW 6 13 3 7 - - 0.0
29/03:30am 2.8 0.1 2.8 100 0.0 WSW 6 7 3 4 - - 0.0
29/03:00am 3.1 0.5 3.1 100 0.0 WSW 6 7 3 4 - - 0.0
29/02:30am 3.7 1.5 3.6 99 0.0 WSW 4 7 2 4 - - 0.0
29/02:00am 4.1 2.7 3.8 98 0.1 CALM 0 0 0 0 - - 0.0
29/01:30am 3.7 2.3 3.6 99 0.0 CALM 0 0 0 0 - - 0.0
29/01:00am 4.0 2.2 3.7 98 0.1 WSW 2 4 1 2 - - 0.0
29/12:30am 4.0 2.7 3.9 99 0.0 CALM 0 0 0 0 - - 0.0
29/12:00am 4.2 2.9 4.1 99 0.0 CALM 0 0 0 0 - - 0.0
 
Date/Time
EST
Temp
°C
App
Temp
°C
Dew
Point
Rel
Hum
%
Delta-T
°C
Wind Press
QNH
hPa
Press
MSL
hPa
Rain
since 9 am
mm
Dir
 
Spd
km/h
Gust
km/h
Spd
kts
Gust
kts
28/11:30pm 4.5 3.3 4.4 99 0.0 CALM 0 0 0 0 - - 0.0
28/11:00pm 4.5 3.3 4.4 99 0.0 CALM 0 0 0 0 - - 0.0
28/10:30pm 4.3 2.6 4.2 99 0.0 WSW 2 6 1 3 - - 0.0
28/10:00pm 4.3 2.3 4.2 99 0.0 WSW 4 6 2 3 - - 0.0
28/09:30pm 4.2 2.5 4.1 99 0.0 WSW 2 7 1 4 - - 0.0
28/09:00pm 4.8 2.3 4.5 98 0.1 WSW 7 15 4 8 - - 0.0
28/08:30pm 5.0 2.1 4.9 99 0.0 WSW 9 17 5 9 - - 0.0
28/08:00pm 5.0 1.8 4.9 99 0.0 W 11 19 6 10 - - 0.0
28/07:30pm 5.1 2.3 5.0 99 0.0 WSW 9 17 5 9 - - 0.0
28/07:00pm 5.6 3.3 5.5 99 0.0 WSW 7 9 4 5 - - 0.0
28/06:30pm 5.8 3.6 5.5 98 0.1 WSW 6 9 3 5 - - 0.0
28/06:00pm 5.9 4.0 5.0 94 0.4 WSW 4 11 2 6 - - 0.0
28/05:30pm 6.5 4.0 4.5 87 0.9 WSW 7 13 4 7 - - 0.0
28/05:00pm 7.3 4.4 4.8 84 1.2 WSW 9 15 5 8 - - 0.0
28/04:30pm 7.7 4.2 3.4 74 1.9 W 11 22 6 12 - - 0.0
28/04:00pm 9.6 7.1 4.6 71 2.4 W 7 17 4 9 - - 0.0
28/03:30pm 9.8 7.3 4.6 70 2.5 WNW 7 17 4 9 - - 0.0
28/03:00pm 9.6 7.0 3.1 64 3.0 WNW 6 13 3 7 - - 0.0
28/02:30pm 8.6 5.8 3.2 69 2.5 WNW 7 11 4 6 - - 0.0
28/02:00pm 9.4 7.3 4.0 69 2.5 SSE 4 7 2 4 - - 0.0
28/01:30pm 8.9 6.7 3.3 68 2.6 SSE 4 11 2 6 - - 0.0
28/01:00pm 8.5 6.9 4.7 77 1.8 SSE 2 7 1 4 - - 0.0
28/12:30pm 8.0 6.3 4.2 77 1.8 SSE 2 7 1 4 - - 0.0
28/12:00pm 8.1 6.5 4.3 77 1.8 SSE 2 4 1 2 - - 0.0
28/11:30am 8.0 6.4 4.4 78 1.7 SSE 2 6 1 3 - - 0.0
28/11:00am 8.9 6.7 5.1 77 1.8 SE 6 9 3 5 - - 0.0
28/10:30am 7.6 5.3 4.6 81 1.4 E 6 13 3 7 - - 0.0
28/10:00am 6.4 3.4 4.1 85 1.0 SE 9 17 5 9 - - 0.0
28/09:30am 6.8 4.2 4.3 84 1.1 SE 7 17 4 9 - - 0.0
28/09:00am 5.9 3.4 4.5 91 0.6 S 7 22 4 12 - - 1.6
28/08:30am 5.1 2.8 5.0 99 0.0 SSE 6 15 3 8 - - 1.6
28/08:00am 4.3 1.9 4.3 100 0.0 SSE 6 9 3 5 - - 1.6
28/07:30am 4.2 2.2 4.2 100 0.0 SSE 4 9 2 5 - - 1.6
28/07:00am 3.5 1.3 3.5 100 0.0 WSW 4 7 2 4 - - 1.6
28/06:30am 3.0 1.1 3.0 100 0.0 WSW 2 2 1 1 - - 1.6
28/06:00am 3.0 0.7 3.0 100 0.0 WSW 4 6 2 3 - - 1.6
28/05:30am 3.3 1.1 3.3 100 0.0 WSW 4 4 2 2 - - 1.6
28/05:00am 3.4 1.2 3.4 100 0.0 WSW 4 6 2 3 - - 1.6
28/04:30am 3.6 1.4 3.6 100 0.0 NW 4 7 2 4 - - 1.6
28/04:00am 3.8 2.1 3.8 100 0.0 NW 2 4 1 2 - - 1.6
28/03:30am 4.0 2.3 4.0 100 0.0 NW 2 4 1 2 - - 1.6
28/03:00am 3.9 1.8 3.9 100 0.0 NW 4 7 2 4 - - 1.6
28/02:30am 4.0 1.9 4.0 100 0.0 NW 4 6 2 3 - - 1.2
28/02:00am 3.7 1.9 3.7 100 0.0 NW 2 6 1 3 - - 1.0
28/01:30am 3.9 2.6 3.9 100 0.0 CALM 0 0 0 0 - - 1.0
28/01:00am 3.3 1.9 3.3 100 0.0 CALM 0 0 0 0 - - 1.0
28/12:30am 3.3 1.9 3.3 100 0.0 CALM 0 2 0 1 - - 1.0
28/12:00am 3.7 1.9 3.7 100 0.0 NW 2 6 1 3 - - 1.0
 
Date/Time
EST
Temp
°C
App
Temp
°C
Dew
Point
Rel
Hum
%
Delta-T
°C
Wind Press
QNH
hPa
Press
MSL
hPa
Rain
since 9 am
mm
Dir
 
Spd
km/h
Gust
km/h
Spd
kts
Gust
kts
27/11:30pm 3.7 1.6 3.7 100 0.0 NW 4 9 2 5 - - 1.0
27/11:00pm 3.6 1.4 3.6 100 0.0 NW 4 6 2 3 - - 1.0
27/10:30pm 4.0 1.5 4.0 100 0.0 WNW 6 11 3 6 - - 1.0
27/10:00pm 4.3 1.9 4.3 100 0.0 WNW 6 11 3 6 - - 1.0
27/09:30pm 4.6 1.3 4.6 100 0.0 W 11 19 6 10 - - 1.0
27/09:00pm 4.4 1.5 4.4 100 0.0 W 9 13 5 7 - - 1.0
27/08:30pm 4.8 2.3 4.8 100 0.0 WNW 7 11 4 6 - - 1.0
27/08:00pm 5.0 2.2 5.0 100 0.0 W 9 17 5 9 - - 1.0

Other Formats:

Comma delimited format used in spreadsheet applications
http://www.bom.gov.au/fwo/IDV60801/IDV60801.94878.axf

JavaScript Object Notation format (JSON) in row-major order
http://www.bom.gov.au/fwo/IDV60801/IDV60801.94878.json